createdAt,value
2019-04-04T00:00:45.172Z,17.65
2019-04-04T00:03:19.064Z,22.02
2019-04-04T00:05:51.554Z,18.55
2019-04-04T00:08:23.841Z,18.10
2019-04-04T00:10:55.150Z,19.70
2019-04-04T00:13:27.539Z,18.60
2019-04-04T00:15:58.849Z,18.23
2019-04-04T00:18:30.216Z,19.40
2019-04-04T00:21:03.229Z,18.80
2019-04-04T00:23:37.674Z,20.45
2019-04-04T00:26:08.896Z,20.27
2019-04-04T00:28:40.960Z,22.37
2019-04-04T00:31:12.272Z,21.57
2019-04-04T00:33:43.613Z,22.58
2019-04-04T00:36:15.102Z,22.80
2019-04-04T00:38:47.494Z,22.80
2019-04-04T00:41:20.678Z,24.87
2019-04-04T00:43:52.444Z,27.20
2019-04-04T00:46:24.684Z,29.30
2019-04-04T00:48:55.990Z,25.37
2019-04-04T00:51:27.320Z,24.75
2019-04-04T00:53:58.619Z,25.65
2019-04-04T00:56:29.970Z,25.97
2019-04-04T00:59:01.301Z,25.75
2019-04-04T01:01:32.612Z,25.35
2019-04-04T01:04:03.933Z,25.50
2019-04-04T01:06:36.247Z,25.92
2019-04-04T01:09:11.289Z,25.37
2019-04-04T01:11:40.589Z,23.95
2019-04-04T01:14:11.901Z,22.98
2019-04-04T01:16:43.238Z,23.02
2019-04-04T01:19:14.525Z,21.85
2019-04-04T01:21:45.852Z,21.52
2019-04-04T01:24:17.161Z,20.02
2019-04-04T01:26:50.449Z,20.90
2019-04-04T01:29:21.804Z,20.15
2019-04-04T01:31:53.106Z,20.23
2019-04-04T01:34:24.518Z,19.92
2019-04-04T01:36:56.475Z,19.05
2019-04-04T01:39:29.023Z,18.35
2019-04-04T01:42:01.541Z,17.52
2019-04-04T01:44:32.756Z,17.95
2019-04-04T01:47:04.104Z,17.77
2019-04-04T01:49:36.947Z,17.50
2019-04-04T01:52:09.215Z,17.32
2019-04-04T01:54:40.442Z,15.90
2019-04-04T01:57:12.841Z,15.80
2019-04-04T01:59:44.468Z,16.73
2019-04-04T02:02:17.784Z,17.70
2019-04-04T02:04:48.556Z,18.25
2019-04-04T02:07:19.789Z,18.90
2019-04-04T02:09:52.060Z,20.15
2019-04-04T02:12:23.373Z,19.95
2019-04-04T02:14:57.644Z,19.42
2019-04-04T02:17:29.057Z,19.75
2019-04-04T02:20:00.318Z,17.77
2019-04-04T02:22:31.647Z,18.60
2019-04-04T02:25:03.761Z,18.48
2019-04-04T02:27:37.686Z,19.23
2019-04-04T02:30:08.690Z,18.73
2019-04-04T02:32:41.180Z,19.67
2019-04-04T02:35:12.491Z,18.62
2019-04-04T02:37:43.850Z,20.92
2019-04-04T02:40:15.305Z,21.10
2019-04-04T02:42:46.669Z,20.12
2019-04-04T02:45:17.982Z,20.32
2019-04-04T02:47:51.252Z,19.90
2019-04-04T02:50:22.326Z,17.77
2019-04-04T02:52:53.661Z,17.05
2019-04-04T02:55:24.982Z,16.35
2019-04-04T02:57:56.408Z,16.85
2019-04-04T03:00:27.966Z,16.95
2019-04-04T03:02:59.381Z,17.90
2019-04-04T03:05:30.770Z,16.60
2019-04-04T03:08:04.147Z,17.57
2019-04-04T03:10:35.156Z,16.30
2019-04-04T03:13:06.704Z,17.55
2019-04-04T03:15:41.414Z,19.55
2019-04-04T03:18:11.056Z,20.12
2019-04-04T03:20:42.626Z,20.40
2019-04-04T03:23:17.122Z,19.90
2019-04-04T03:25:48.424Z,18.70
2019-04-04T03:28:19.692Z,21.15
2019-04-04T03:31:01.859Z,20.10
2019-04-04T03:33:31.533Z,20.10
2019-04-04T03:36:01.184Z,21.00
2019-04-04T03:38:32.766Z,22.42
2019-04-04T03:41:04.150Z,22.13
2019-04-04T03:43:35.418Z,21.33
2019-04-04T03:46:09.103Z,21.65
2019-04-04T03:48:40.451Z,20.57
2019-04-04T03:51:11.746Z,22.82
2019-04-04T03:53:48.658Z,22.00
2019-04-04T03:56:17.465Z,22.70
2019-04-04T03:58:48.786Z,22.05
2019-04-04T04:01:22.719Z,22.58
2019-04-04T04:03:58.024Z,22.67
2019-04-04T04:06:29.392Z,21.35
2019-04-04T04:09:00.688Z,21.10
2019-04-04T04:11:34.693Z,22.55
2019-04-04T04:14:06.984Z,23.92
2019-04-04T04:16:38.136Z,21.95
2019-04-04T04:19:09.568Z,23.25
2019-04-04T04:21:43.302Z,22.55
2019-04-04T04:24:15.487Z,22.55
2019-04-04T04:26:46.983Z,21.93
2019-04-04T04:29:18.378Z,23.15
2019-04-04T04:31:50.030Z,22.52
2019-04-04T04:34:24.549Z,22.17
2019-04-04T04:36:56.010Z,21.68
2019-04-04T04:39:28.667Z,21.50
2019-04-04T04:42:02.343Z,22.37
2019-04-04T04:44:37.685Z,23.40
2019-04-04T04:47:09.927Z,22.73
2019-04-04T04:49:41.759Z,22.75
2019-04-04T04:52:15.157Z,23.38
2019-04-04T04:54:49.668Z,23.87
2019-04-04T04:57:29.347Z,24.25
2019-04-04T04:59:54.309Z,25.62
2019-04-04T05:02:25.741Z,24.25
2019-04-04T05:04:59.194Z,25.10
2019-04-04T05:07:30.338Z,24.10
2019-04-04T05:10:01.846Z,24.15
2019-04-04T05:12:33.677Z,23.55
2019-04-04T05:15:06.230Z,23.38
2019-04-04T05:17:37.577Z,23.60
2019-04-04T05:20:08.942Z,23.38
2019-04-04T05:22:41.936Z,22.95
2019-04-04T05:25:13.673Z,25.12
2019-04-04T05:27:45.413Z,25.17
2019-04-04T05:30:20.160Z,25.27
2019-04-04T05:32:52.089Z,24.80
2019-04-04T05:35:22.952Z,23.83
2019-04-04T05:37:54.807Z,21.42
2019-04-04T05:40:30.495Z,20.68
2019-04-04T05:43:03.903Z,18.05
2019-04-04T05:45:33.758Z,19.57
2019-04-04T05:48:05.038Z,17.32
2019-04-04T05:50:36.400Z,18.77
2019-04-04T05:53:07.802Z,19.65
2019-04-04T05:55:41.861Z,18.48
2019-04-04T05:58:13.333Z,18.62
2019-04-04T06:00:46.466Z,21.45
2019-04-04T06:03:17.817Z,22.00
2019-04-04T06:05:49.164Z,21.82
2019-04-04T06:08:22.050Z,22.82
2019-04-04T06:10:53.366Z,21.97
2019-04-04T06:13:27.063Z,22.10
2019-04-04T06:15:58.859Z,23.45
2019-04-04T06:18:31.291Z,26.77
2019-04-04T06:21:02.750Z,25.23
2019-04-04T06:23:35.611Z,24.20
2019-04-04T06:26:07.732Z,27.65
2019-04-04T06:28:39.217Z,26.60
2019-04-04T06:31:10.556Z,29.37
2019-04-04T06:33:41.970Z,23.55
2019-04-04T06:36:13.315Z,23.47
2019-04-04T06:38:44.721Z,25.95
2019-04-04T06:41:16.157Z,23.47
2019-04-04T06:43:47.584Z,22.65
2019-04-04T06:46:22.603Z,23.95
2019-04-04T06:48:52.812Z,24.00
2019-04-04T06:51:24.167Z,23.35
2019-04-04T06:53:55.508Z,23.85
2019-04-04T06:56:27.075Z,23.32
2019-04-04T06:58:58.450Z,24.47
2019-04-04T07:01:29.814Z,22.98
2019-04-04T07:04:01.397Z,20.88
2019-04-04T07:06:32.805Z,20.82
2019-04-04T07:09:05.656Z,19.27
2019-04-04T07:11:37.099Z,19.65
2019-04-04T07:14:11.912Z,19.73
2019-04-04T07:16:45.272Z,20.00
2019-04-04T07:19:16.429Z,19.12
2019-04-04T07:21:49.161Z,20.08
2019-04-04T07:24:21.112Z,20.55
2019-04-04T07:26:52.397Z,19.67
2019-04-04T07:29:25.217Z,19.65
2019-04-04T07:32:00.219Z,21.65
2019-04-04T07:34:36.249Z,18.57
2019-04-04T07:37:07.539Z,20.12
2019-04-04T07:39:38.880Z,19.27
2019-04-04T07:42:11.235Z,20.00
2019-04-04T07:44:42.675Z,18.87
2019-04-04T07:47:16.130Z,19.02
2019-04-04T07:49:47.999Z,19.95
2019-04-04T07:52:19.379Z,19.27
2019-04-04T07:54:50.745Z,18.12
2019-04-04T07:57:22.031Z,17.87
2019-04-04T07:59:53.445Z,18.15
2019-04-04T08:02:24.808Z,17.52
2019-04-04T08:04:56.162Z,17.23
2019-04-04T08:07:27.557Z,16.55
2019-04-04T08:09:59.105Z,16.52
2019-04-04T08:12:30.444Z,15.88
2019-04-04T08:15:01.995Z,11.75
2019-04-04T08:17:33.422Z,10.65
2019-04-04T08:20:05.977Z,10.90
2019-04-04T08:22:39.850Z,9.53
2019-04-04T08:25:12.541Z,10.60
2019-04-04T08:27:43.896Z,10.18
2019-04-04T08:30:15.825Z,8.28
2019-04-04T08:32:47.169Z,9.83
2019-04-04T08:35:19.562Z,10.28
2019-04-04T08:37:50.936Z,10.03
2019-04-04T08:40:23.715Z,8.85
2019-04-04T08:42:57.390Z,9.00
2019-04-04T08:45:28.728Z,9.63
2019-04-04T08:48:02.065Z,10.00
2019-04-04T08:50:33.417Z,10.13
2019-04-04T08:53:04.788Z,9.70
2019-04-04T08:55:36.717Z,10.70
2019-04-04T08:58:08.905Z,9.90
2019-04-04T09:00:41.883Z,8.93
2019-04-04T09:03:13.396Z,8.18
2019-04-04T09:05:44.962Z,8.13
2019-04-04T09:08:16.501Z,8.48
2019-04-04T09:10:47.862Z,9.15
2019-04-04T09:13:19.326Z,8.90
2019-04-04T09:15:50.997Z,10.75
2019-04-04T09:18:23.638Z,9.65
2019-04-04T09:20:55.016Z,9.23
2019-04-04T09:23:26.815Z,8.20
2019-04-04T09:26:05.392Z,8.85
2019-04-04T09:28:31.407Z,9.38
2019-04-04T09:31:02.802Z,8.93
2019-04-04T09:33:37.898Z,9.90
2019-04-04T09:36:11.546Z,9.25
2019-04-04T09:38:43.310Z,9.50
2019-04-04T09:41:16.387Z,9.20
2019-04-04T09:43:49.404Z,9.03
2019-04-04T09:46:20.861Z,9.73
2019-04-04T09:48:52.210Z,9.03
2019-04-04T09:51:26.227Z,10.30
2019-04-04T09:57:21.527Z,11.15
2019-04-04T09:59:55.120Z,10.08
2019-04-04T10:02:28.727Z,11.30
2019-04-04T10:05:00.095Z,10.58
2019-04-04T10:07:31.487Z,9.88
2019-04-04T10:10:03.207Z,9.15
2019-04-04T10:12:34.645Z,9.48
2019-04-04T10:15:11.785Z,9.33
2019-04-04T10:17:43.189Z,9.18
2019-04-04T10:20:14.632Z,9.43
2019-04-04T10:22:46.224Z,9.10
2019-04-04T10:25:18.268Z,9.43
2019-04-04T10:27:54.825Z,9.20
2019-04-04T10:30:44.306Z,8.75
2019-04-04T10:33:17.914Z,8.23
2019-04-04T10:35:52.241Z,8.85
2019-04-04T10:41:57.743Z,9.43
2019-04-04T10:44:30.138Z,8.88
2019-04-04T10:47:01.568Z,8.88
2019-04-04T10:49:42.504Z,9.30
2019-04-04T10:52:16.512Z,9.30
2019-04-04T10:54:49.573Z,9.33
2019-04-04T10:57:24.723Z,10.48
2019-04-04T11:00:24.860Z,9.48
2019-04-04T11:03:01.521Z,9.65
2019-04-04T11:05:35.316Z,9.23
2019-04-04T11:08:06.924Z,9.47
2019-04-04T11:10:38.373Z,9.00
2019-04-04T11:13:09.855Z,8.53
2019-04-04T11:15:41.097Z,9.40
2019-04-04T11:18:12.425Z,9.03
2019-04-04T11:20:44.718Z,8.33
2019-04-04T11:23:15.956Z,8.53
2019-04-04T11:25:48.398Z,8.08
2019-04-04T11:28:20.880Z,8.65
2019-04-04T11:30:52.539Z,8.33
2019-04-04T11:33:24.865Z,8.40
2019-04-04T11:35:55.961Z,8.78
2019-04-04T11:38:27.469Z,8.98
2019-04-04T11:40:59.924Z,9.83
2019-04-04T11:43:31.241Z,9.08
2019-04-04T11:46:02.556Z,8.55
2019-04-04T11:48:34.890Z,9.68
2019-04-04T11:51:07.246Z,8.20
2019-04-04T11:53:40.171Z,8.50
2019-04-04T11:56:11.634Z,8.20
2019-04-04T11:58:43.066Z,8.65
2019-04-04T12:01:19.032Z,8.60
2019-04-04T12:03:53.601Z,7.95
2019-04-04T12:06:25.086Z,8.58
2019-04-04T12:08:56.631Z,7.37
2019-04-04T12:11:27.995Z,8.05
2019-04-04T12:14:01.479Z,7.53
2019-04-04T12:16:33.015Z,7.05
2019-04-04T12:19:04.611Z,7.37
2019-04-04T12:21:36.054Z,7.83
2019-04-04T12:24:10.296Z,7.83
2019-04-04T12:26:44.789Z,7.40
2019-04-04T12:29:16.152Z,7.80
2019-04-04T12:31:47.667Z,6.80
2019-04-04T12:34:22.309Z,7.60
2019-04-04T12:36:57.197Z,7.92
2019-04-04T12:41:59.119Z,7.37
2019-04-04T12:44:34.650Z,7.95
2019-04-04T12:47:07.267Z,8.15
2019-04-04T12:49:38.599Z,7.47
2019-04-04T12:52:09.991Z,7.90
2019-04-04T12:54:42.110Z,8.48
2019-04-04T12:57:16.119Z,8.55
2019-04-04T12:59:47.425Z,8.35
2019-04-04T13:02:18.837Z,9.05
2019-04-04T13:04:50.129Z,8.75
2019-04-04T13:07:23.456Z,7.92
2019-04-04T13:09:55.873Z,7.58
2019-04-04T13:12:27.322Z,6.80
2019-04-04T13:14:58.706Z,7.05
2019-04-04T13:17:30.353Z,7.83
2019-04-04T13:20:01.700Z,7.08
2019-04-04T13:22:33.018Z,7.28
2019-04-04T13:25:06.999Z,6.62
2019-04-04T13:27:38.301Z,8.78
2019-04-04T13:30:11.384Z,7.33
2019-04-04T13:32:42.875Z,6.97
2019-04-04T13:35:17.173Z,7.53
2019-04-04T13:37:48.512Z,8.78
2019-04-04T13:40:21.534Z,7.37
2019-04-04T13:42:54.256Z,9.60
2019-04-04T13:45:26.050Z,8.50
2019-04-04T13:47:58.778Z,8.55
2019-04-04T13:50:30.200Z,7.25
2019-04-04T13:53:01.530Z,7.80
2019-04-04T13:55:33.096Z,11.70
2019-04-04T13:58:05.469Z,7.50
2019-04-04T14:00:36.992Z,8.90
2019-04-04T14:03:08.754Z,11.00
2019-04-04T14:05:40.529Z,9.45
2019-04-04T14:08:19.585Z,10.70
2019-04-04T14:10:58.103Z,8.70
2019-04-04T14:13:26.139Z,8.38
2019-04-04T14:15:58.999Z,8.83
2019-04-04T14:18:39.576Z,8.75
2019-04-04T14:21:04.279Z,9.18
2019-04-04T14:23:35.770Z,11.45
2019-04-04T14:26:07.210Z,8.30
2019-04-04T14:28:40.767Z,7.62
2019-04-04T14:31:12.447Z,7.70
2019-04-04T14:33:44.951Z,9.98
2019-04-04T14:36:16.316Z,14.00
2019-04-04T14:38:47.769Z,17.02
2019-04-04T14:41:21.385Z,7.57
2019-04-04T14:43:52.747Z,8.15
2019-04-04T14:46:24.017Z,8.98
2019-04-04T14:48:55.369Z,27.15
2019-04-04T14:51:29.630Z,20.68
2019-04-04T14:54:00.979Z,7.42
2019-04-04T14:56:32.503Z,7.50
2019-04-04T15:02:18.283Z,8.78
2019-04-04T15:04:51.730Z,9.35
2019-04-04T15:07:23.207Z,8.20
2019-04-04T15:09:55.590Z,8.30
2019-04-04T15:12:26.857Z,8.55
2019-04-04T15:15:00.227Z,10.25
2019-04-04T15:17:31.673Z,10.18
2019-04-04T15:20:05.713Z,9.48
2019-04-04T15:22:36.974Z,9.98
2019-04-04T15:25:08.326Z,11.00
2019-04-04T15:27:39.771Z,10.53
2019-04-04T15:30:12.298Z,10.13
2019-04-04T15:32:43.697Z,10.40
2019-04-04T15:35:15.001Z,12.15
2019-04-04T15:37:47.388Z,9.77
2019-04-04T15:40:18.820Z,9.90
2019-04-04T15:42:50.210Z,9.50
2019-04-04T15:45:21.601Z,8.70
2019-04-04T15:47:52.914Z,8.00
2019-04-04T15:50:24.251Z,6.65
2019-04-04T15:52:55.688Z,7.03
2019-04-04T15:55:27.392Z,7.78
2019-04-04T15:57:58.917Z,7.65
2019-04-04T16:00:32.494Z,6.33
2019-04-04T16:03:03.823Z,6.40
2019-04-04T16:05:38.877Z,6.65
2019-04-04T16:08:10.834Z,7.20
2019-04-04T16:10:48.748Z,6.53
2019-04-04T16:13:23.723Z,7.80
2019-04-04T16:15:57.699Z,7.45
2019-04-04T16:18:29.273Z,7.20
2019-04-04T16:21:06.843Z,7.20
2019-04-04T16:23:40.165Z,7.42
2019-04-04T16:26:11.737Z,7.78
2019-04-04T16:28:43.097Z,7.70
2019-04-04T16:31:14.404Z,7.33
2019-04-04T16:33:45.736Z,7.30
2019-04-04T16:36:17.186Z,7.95
2019-04-04T16:38:48.517Z,7.92
2019-04-04T16:41:19.820Z,8.20
2019-04-04T16:43:51.212Z,9.25
2019-04-04T16:46:23.448Z,8.85
2019-04-04T16:48:54.631Z,9.98
2019-04-04T16:51:26.304Z,11.28
2019-04-04T16:53:57.896Z,14.70
2019-04-04T16:56:29.376Z,16.60
2019-04-04T16:59:01.723Z,18.15
2019-04-04T17:01:33.109Z,19.32
2019-04-04T17:04:04.457Z,18.82
2019-04-04T17:06:35.895Z,21.07
2019-04-04T17:09:08.052Z,23.57
2019-04-04T17:11:40.581Z,24.65
2019-04-04T17:14:12.155Z,21.45
2019-04-04T17:16:43.492Z,21.12
2019-04-04T17:19:16.531Z,23.07
2019-04-04T17:21:48.166Z,24.00
2019-04-04T17:24:19.892Z,23.60
2019-04-04T17:26:51.339Z,23.38
2019-04-04T17:29:22.728Z,21.90
2019-04-04T17:31:55.161Z,23.55
2019-04-04T17:34:26.515Z,20.90
2019-04-04T17:36:58.009Z,22.50
2019-04-04T17:39:32.534Z,22.45
2019-04-04T17:42:05.033Z,23.42
2019-04-04T17:44:36.533Z,24.12
2019-04-04T17:47:07.857Z,24.63
2019-04-04T17:49:39.764Z,25.17
2019-04-04T17:52:11.618Z,25.82
2019-04-04T17:54:43.055Z,23.62
2019-04-04T17:57:14.532Z,25.25
2019-04-04T17:59:46.487Z,25.08
2019-04-04T18:02:17.862Z,25.32
2019-04-04T18:04:50.271Z,26.10
2019-04-04T18:07:22.788Z,25.40
2019-04-04T18:09:54.538Z,25.57
2019-04-04T18:12:25.894Z,25.85
2019-04-04T18:14:57.231Z,25.90
2019-04-04T18:17:28.523Z,25.82
2019-04-04T18:19:59.858Z,26.55
2019-04-04T18:22:31.157Z,26.50
2019-04-04T18:25:02.515Z,24.25
2019-04-04T18:27:33.811Z,25.20
2019-04-04T18:30:10.848Z,23.62
2019-04-04T18:32:42.288Z,26.45
2019-04-04T18:35:15.022Z,28.10
2019-04-04T18:37:46.435Z,25.92
2019-04-04T18:40:17.793Z,25.17
2019-04-04T18:42:53.607Z,28.62
2019-04-04T18:45:22.168Z,25.95
2019-04-04T18:47:53.506Z,27.02
2019-04-04T18:50:25.093Z,29.15
2019-04-04T18:52:56.314Z,35.63
2019-04-04T18:55:27.664Z,32.48
2019-04-04T18:57:58.927Z,34.73
2019-04-04T19:00:30.423Z,34.48
2019-04-04T19:03:01.765Z,38.25
2019-04-04T19:05:34.131Z,40.12
2019-04-04T19:08:05.431Z,41.28
2019-04-04T19:10:36.837Z,46.80
2019-04-04T19:13:09.360Z,47.50
2019-04-04T19:15:40.674Z,47.33
2019-04-04T19:18:11.979Z,49.80
2019-04-04T19:20:44.340Z,49.38
2019-04-04T19:23:15.691Z,49.98
2019-04-04T19:25:47.035Z,50.08
2019-04-04T19:28:18.403Z,51.60
2019-04-04T19:30:49.727Z,53.52
2019-04-04T19:33:21.098Z,50.48
2019-04-04T19:35:52.428Z,53.68
2019-04-04T19:38:23.765Z,52.65
2019-04-04T19:40:55.663Z,51.05
2019-04-04T19:43:26.990Z,48.95
2019-04-04T19:45:58.319Z,47.53
2019-04-04T19:48:29.625Z,50.45
2019-04-04T19:51:01.958Z,45.28
2019-04-04T19:53:33.305Z,58.90
2019-04-04T19:56:04.575Z,56.10
2019-04-04T19:58:35.989Z,63.05
2019-04-04T20:01:08.000Z,58.92
2019-04-04T20:03:39.366Z,52.48
2019-04-04T20:06:11.656Z,48.35
2019-04-04T20:08:42.979Z,47.35
2019-04-04T20:11:14.433Z,47.88
2019-04-04T20:13:45.666Z,49.55
2019-04-04T20:16:16.966Z,45.15
2019-04-04T20:18:48.307Z,43.95
2019-04-04T20:21:19.620Z,43.28
2019-04-04T20:23:50.866Z,41.75
2019-04-04T20:26:22.205Z,33.53
2019-04-04T20:28:53.958Z,35.38
2019-04-04T20:31:25.516Z,39.53
2019-04-04T20:34:01.882Z,38.53
2019-04-04T20:36:32.562Z,38.08
2019-04-04T20:39:04.932Z,40.78
2019-04-04T20:41:36.761Z,39.10
2019-04-04T20:44:07.974Z,35.55
2019-04-04T20:46:39.752Z,35.83
2019-04-04T20:49:11.052Z,34.80
2019-04-04T20:51:42.481Z,34.60
2019-04-04T20:54:13.830Z,36.90
2019-04-04T20:56:45.158Z,36.00
2019-04-04T20:59:16.536Z,34.48
2019-04-04T21:01:47.826Z,34.03
2019-04-04T21:04:21.451Z,33.83
2019-04-04T21:06:52.766Z,36.60
2019-04-04T21:09:24.078Z,36.53
2019-04-04T21:11:55.397Z,33.35
2019-04-04T21:14:26.705Z,35.55
2019-04-04T21:16:59.014Z,36.13
2019-04-04T21:19:30.328Z,35.78
2019-04-04T21:22:01.680Z,35.85
2019-04-04T21:24:33.026Z,36.70
2019-04-04T21:27:04.332Z,34.55
2019-04-04T21:29:35.645Z,35.28
2019-04-04T21:32:06.994Z,35.92
2019-04-04T21:34:38.201Z,36.75
2019-04-04T21:37:09.497Z,36.08
2019-04-04T21:39:40.874Z,35.98
2019-04-04T21:42:12.105Z,36.58
2019-04-04T21:44:43.427Z,36.10
2019-04-04T21:47:14.730Z,34.92
2019-04-04T21:49:45.915Z,35.60
2019-04-04T21:52:17.272Z,36.38
2019-04-04T21:54:48.908Z,35.95
2019-04-04T21:57:20.172Z,34.05
2019-04-04T21:59:51.399Z,36.08
2019-04-04T22:02:22.740Z,34.78
2019-04-04T22:04:53.991Z,33.48
2019-04-04T22:07:26.382Z,34.43
2019-04-04T22:09:57.669Z,35.08
2019-04-04T22:12:28.961Z,36.88
2019-04-04T22:15:00.328Z,38.58
2019-04-04T22:17:31.626Z,38.90
2019-04-04T22:20:02.924Z,38.80
2019-04-04T22:22:35.427Z,39.20
2019-04-04T22:25:06.948Z,40.50
2019-04-04T22:27:38.184Z,38.75
2019-04-04T22:30:09.453Z,38.28
2019-04-04T22:32:40.745Z,37.58
2019-04-04T22:35:12.046Z,40.10
2019-04-04T22:37:43.294Z,37.65
2019-04-04T22:40:14.621Z,41.28
2019-04-04T22:42:45.955Z,39.85
2019-04-04T22:45:18.239Z,42.35
2019-04-04T22:47:49.540Z,43.55
2019-04-04T22:50:20.853Z,47.88
2019-04-04T22:52:53.171Z,49.42
2019-04-04T22:55:26.562Z,46.92
2019-04-04T22:57:57.551Z,45.10
2019-04-04T23:00:28.850Z,44.05
2019-04-04T23:03:01.551Z,41.75
2019-04-04T23:05:34.616Z,43.42
2019-04-04T23:08:07.470Z,41.77
2019-04-04T23:10:39.139Z,44.83
2019-04-04T23:13:10.470Z,43.70
2019-04-04T23:15:41.792Z,43.63
2019-04-04T23:18:13.107Z,42.48
2019-04-04T23:20:44.410Z,42.55
2019-04-04T23:23:15.791Z,43.08
2019-04-04T23:25:47.115Z,43.48
2019-04-04T23:28:18.460Z,43.70
2019-04-04T23:30:49.749Z,40.33
2019-04-04T23:33:21.089Z,40.12
2019-04-04T23:35:52.428Z,41.42
2019-04-04T23:38:25.831Z,41.08
2019-04-04T23:40:57.177Z,41.85
2019-04-04T23:43:28.427Z,45.38
2019-04-04T23:45:59.760Z,47.95
2019-04-04T23:48:31.081Z,51.00
2019-04-04T23:51:02.361Z,51.25
2019-04-04T23:53:33.796Z,53.30
2019-04-04T23:56:05.096Z,63.02
2019-04-04T23:58:36.318Z,63.83
